Time;durP1;ratioP1;P1;durP2;ratioP2;P2;SDS_P1;SDS_P2;PMS_P1;PMS_P2;Temp;Humidity;BMP_temperature;BMP_pressure;BME280_temperature;BME280_humidity;BME280_pressure;Samples;Min_cycle;Max_cycle;Signal;HPM_P1;HPM_P2
2023/09/19 00:00:35;;;;;;;1.75;1.65;;;15.70;99.90;;;;;;4983837;28;20074;-84
2023/09/19 00:03:01;;;;;;;1.92;1.83;;;15.70;99.90;;;;;;4978998;28;20058;-84
2023/09/19 00:05:28;;;;;;;1.95;1.85;;;15.80;99.90;;;;;;4983133;28;20143;-84
2023/09/19 00:07:58;;;;;;;1.95;1.85;;;15.60;99.90;;;;;;4983560;28;20084;-85
2023/09/19 00:10:26;;;;;;;2.10;2.00;;;15.50;99.90;;;;;;4969593;28;20046;-85
2023/09/19 00:12:55;;;;;;;1.90;1.80;;;15.50;99.90;;;;;;4982982;28;20052;-86
2023/09/19 00:15:22;;;;;;;2.15;2.05;;;15.50;99.90;;;;;;4986075;28;20053;-83
2023/09/19 00:17:48;;;;;;;2.20;2.10;;;15.30;99.90;;;;;;4982642;28;20492;-85
2023/09/19 00:20:17;;;;;;;1.95;1.85;;;15.40;99.90;;;;;;4983301;28;20069;-83
2023/09/19 00:22:43;;;;;;;1.95;1.85;;;15.20;99.90;;;;;;4984202;28;20046;-84
2023/09/19 00:25:10;;;;;;;1.75;1.65;;;15.20;99.90;;;;;;4975998;28;20525;-84
2023/09/19 00:27:41;;;;;;;1.85;1.75;;;15.00;99.90;;;;;;4982852;28;20707;-85
2023/09/19 00:30:14;;;;;;;1.80;1.70;;;15.10;99.90;;;;;;4980859;28;20042;-83
2023/09/19 00:32:41;;;;;;;1.83;1.73;;;15.00;99.90;;;;;;4979374;28;20054;-84
2023/09/19 00:35:10;;;;;;;1.73;1.63;;;15.20;99.90;;;;;;4985988;28;20052;-84
2023/09/19 00:37:36;;;;;;;1.65;1.55;;;15.00;99.90;;;;;;4968092;28;20100;-83
2023/09/19 00:40:05;;;;;;;1.75;1.65;;;15.20;99.90;;;;;;4985552;28;20407;-84
2023/09/19 00:42:31;;;;;;;1.65;1.55;;;15.00;99.90;;;;;;4984487;28;20053;-82
2023/09/19 00:44:57;;;;;;;1.75;1.65;;;15.00;99.90;;;;;;4982966;28;20054;-84
2023/09/19 00:47:23;;;;;;;1.75;1.65;;;15.10;99.90;;;;;;4977002;28;20109;-82
2023/09/19 00:49:52;;;;;;;1.75;1.65;;;14.90;99.90;;;;;;4999327;28;20546;-83
2023/09/19 00:52:22;;;;;;;1.75;1.65;;;15.20;99.90;;;;;;4984056;28;20050;-87
2023/09/19 00:54:48;;;;;;;1.65;1.55;;;15.10;99.90;;;;;;4982053;28;20050;-85
2023/09/19 00:57:19;;;;;;;1.60;1.50;;;15.10;99.90;;;;;;4969638;28;20053;-84
2023/09/19 00:59:45;;;;;;;1.35;1.30;;;14.90;99.90;;;;;;4968726;28;20065;-85
2023/09/19 01:02:14;;;;;;;1.70;1.60;;;15.10;99.90;;;;;;4983206;28;20042;-85
2023/09/19 01:04:43;;;;;;;1.70;1.60;;;14.80;99.90;;;;;;4985125;28;20038;-85
2023/09/19 01:07:09;;;;;;;1.48;1.40;;;15.30;99.90;;;;;;4984973;28;20103;-83
2023/09/19 01:09:35;;;;;;;1.63;1.52;;;15.20;99.90;;;;;;4969083;28;20125;-83
2023/09/19 01:12:05;;;;;;;1.52;1.45;;;15.10;99.90;;;;;;4984893;28;20129;-83
2023/09/19 01:14:34;;;;;;;1.55;1.45;;;15.30;99.90;;;;;;4985879;28;20046;-85
2023/09/19 01:17:22;;;;;;;1.48;1.40;;;14.90;99.90;;;;;;4987380;28;20442;-85
2023/09/19 01:20:12;;;;;;;1.60;1.50;;;15.20;99.90;;;;;;4969320;28;20053;-83
2023/09/19 01:23:02;;;;;;;1.73;1.63;;;15.10;99.90;;;;;;4986519;28;20070;-82
2023/09/19 01:26:01;;;;;;;1.75;1.65;;;15.20;99.90;;;;;;4986965;28;20053;-86
2023/09/19 01:28:53;;;;;;;1.88;1.77;;;15.40;99.90;;;;;;4985435;28;20070;-86
2023/09/19 01:31:23;;;;;;;1.85;1.75;;;15.40;99.90;;;;;;4989934;28;20064;-85
2023/09/19 01:33:59;;;;;;;1.75;1.65;;;15.00;99.90;;;;;;4990960;28;20049;-84
2023/09/19 01:36:29;;;;;;;1.65;1.55;;;15.10;99.90;;;;;;4991716;28;20691;-84
2023/09/19 01:38:56;;;;;;;1.65;1.55;;;15.20;99.90;;;;;;4986533;28;20602;-83
2023/09/19 01:41:32;;;;;;;1.60;1.50;;;15.40;99.90;;;;;;4987528;28;20145;-86
2023/09/19 01:44:03;;;;;;;1.58;1.48;;;15.00;99.90;;;;;;4991882;28;20049;-85
2023/09/19 01:46:41;;;;;;;1.23;1.23;;;15.00;99.90;;;;;;4989121;28;20057;-87
2023/09/19 01:49:10;;;;;;;1.60;1.50;;;15.20;99.90;;;;;;4972754;28;20116;-87
2023/09/19 01:51:57;;;;;;;1.55;1.45;;;15.00;99.90;;;;;;4976536;28;20053;-87
2023/09/19 01:54:30;;;;;;;1.70;1.60;;;15.10;99.90;;;;;;4983792;28;20049;-86
2023/09/19 01:57:20;;;;;;;1.73;1.63;;;15.10;99.90;;;;;;4981435;28;20082;-86
2023/09/19 01:59:52;;;;;;;1.70;1.60;;;15.10;99.90;;;;;;4992346;28;20045;-85
2023/09/19 02:02:22;;;;;;;1.75;1.65;;;15.10;99.90;;;;;;4992072;28;20046;-87
2023/09/19 02:04:49;;;;;;;1.65;1.55;;;15.00;99.90;;;;;;4976883;28;20088;-85
2023/09/19 02:07:15;;;;;;;1.75;1.65;;;15.10;99.90;;;;;;4993125;28;20053;-84
2023/09/19 02:09:42;;;;;;;1.77;1.67;;;14.90;99.90;;;;;;5001895;28;20056;-85
2023/09/19 02:12:09;;;;;;;1.67;1.58;;;14.70;99.90;;;;;;4990328;28;20057;-86
2023/09/19 02:14:36;;;;;;;1.65;1.55;;;14.90;99.90;;;;;;4990959;28;20065;-87
2023/09/19 02:17:06;;;;;;;1.63;1.52;;;14.70;99.90;;;;;;4991382;28;20049;-85
2023/09/19 02:19:33;;;;;;;1.65;1.55;;;14.70;99.90;;;;;;4990844;28;20045;-89
2023/09/19 02:22:00;;;;;;;1.50;1.42;;;14.70;99.90;;;;;;4990964;28;20136;-86
2023/09/19 02:24:26;;;;;;;1.75;1.65;;;14.70;99.90;;;;;;4973776;28;20450;-86
2023/09/19 02:26:52;;;;;;;1.75;1.65;;;14.90;99.90;;;;;;4998022;28;20107;-87
2023/09/19 02:29:18;;;;;;;1.63;1.52;;;14.70;99.90;;;;;;4974818;28;20049;-86
2023/09/19 02:31:46;;;;;;;1.73;1.63;;;14.80;99.90;;;;;;4972385;28;20042;-87
2023/09/19 02:34:12;;;;;;;1.67;1.58;;;14.50;99.90;;;;;;4982987;28;20077;-86
2023/09/19 02:36:37;;;;;;;1.05;1.05;;;14.60;99.90;;;;;;4971577;28;20074;-85
2023/09/19 02:39:05;;;;;;;1.55;1.45;;;14.70;99.90;;;;;;4990785;28;20040;-90
2023/09/19 02:41:33;;;;;;;1.45;1.38;;;14.50;99.90;;;;;;4973779;28;20044;-86
2023/09/19 02:43:59;;;;;;;1.50;1.40;;;14.70;99.90;;;;;;4989667;28;20125;-85
2023/09/19 02:46:25;;;;;;;1.60;1.50;;;14.60;99.90;;;;;;4974891;28;20057;-87
2023/09/19 02:48:50;;;;;;;1.42;1.38;;;14.50;99.90;;;;;;4990244;28;20465;-88
2023/09/19 02:51:16;;;;;;;1.60;1.50;;;14.50;99.90;;;;;;4974088;28;20050;-86
2023/09/19 02:53:42;;;;;;;1.50;1.40;;;14.50;99.90;;;;;;4972980;28;20044;-89
2023/09/19 02:56:09;;;;;;;1.00;1.00;;;14.70;99.90;;;;;;4981212;28;20125;-87
2023/09/19 02:58:35;;;;;;;1.23;1.23;;;14.50;99.90;;;;;;4988098;28;20042;-86
2023/09/19 03:01:08;;;;;;;1.08;1.08;;;14.70;99.90;;;;;;4989867;28;20050;-84
2023/09/19 03:03:34;;;;;;;1.35;1.35;;;14.50;99.90;;;;;;4989933;28;20458;-84
2023/09/19 03:06:03;;;;;;;1.20;1.20;;;14.60;99.90;;;;;;4978836;28;20034;-84
2023/09/19 03:08:29;;;;;;;1.00;1.00;;;14.50;99.90;;;;;;4985687;28;20056;-88
2023/09/19 03:10:55;;;;;;;1.10;1.10;;;14.50;99.90;;;;;;4973351;28;20382;-85
2023/09/19 03:13:20;;;;;;;1.10;1.10;;;14.50;99.90;;;;;;4989979;28;20073;-86
2023/09/19 03:15:50;;;;;;;0.90;0.90;;;14.50;99.90;;;;;;4974352;28;20146;-86
2023/09/19 03:18:16;;;;;;;0.95;0.95;;;14.60;99.90;;;;;;4991183;28;20104;-84
2023/09/19 03:20:41;;;;;;;1.00;1.00;;;14.50;99.90;;;;;;4974463;28;20426;-86
2023/09/19 03:23:08;;;;;;;0.90;0.90;;;14.60;99.90;;;;;;4989461;28;20049;-89
2023/09/19 03:25:35;;;;;;;1.02;1.02;;;14.40;99.90;;;;;;4989899;28;20153;-87
2023/09/19 03:28:05;;;;;;;0.90;0.90;;;14.60;99.90;;;;;;4990578;28;20046;-85
2023/09/19 03:30:32;;;;;;;0.90;0.90;;;14.60;99.90;;;;;;4990884;28;20042;-85
2023/09/19 03:32:58;;;;;;;0.95;0.95;;;14.60;99.90;;;;;;4979348;28;20100;-87
2023/09/19 03:35:23;;;;;;;0.88;0.88;;;14.60;99.90;;;;;;4992135;28;20080;-86
2023/09/19 03:37:49;;;;;;;0.88;0.88;;;14.70;99.90;;;;;;4987010;28;20054;-87
2023/09/19 03:40:15;;;;;;;0.80;0.80;;;14.60;99.90;;;;;;4981573;28;20053;-84
2023/09/19 03:42:41;;;;;;;0.85;0.85;;;14.70;99.90;;;;;;4988215;28;20112;-87
2023/09/19 03:45:15;;;;;;;0.73;0.73;;;14.80;99.90;;;;;;5006313;28;20152;-86
2023/09/19 03:47:46;;;;;;;;;;;14.80;99.90;;;;;;4989832;28;20057;-85
2023/09/19 03:50:15;;;;;;;0.82;0.82;;;15.00;99.90;;;;;;4989870;28;19928;-88
2023/09/19 03:52:41;;;;;;;0.65;0.65;;;15.00;99.90;;;;;;4989521;28;20042;-86
2023/09/19 03:55:07;;;;;;;0.75;0.75;;;15.00;99.90;;;;;;4989566;28;20119;-86
2023/09/19 03:57:32;;;;;;;0.73;0.73;;;14.90;99.90;;;;;;4974140;28;20137;-85
2023/09/19 03:59:58;;;;;;;0.80;0.80;;;14.90;99.90;;;;;;4989761;28;20129;-86
2023/09/19 04:02:24;;;;;;;0.90;0.90;;;15.10;99.90;;;;;;4973737;28;20061;-86
2023/09/19 04:04:53;;;;;;;0.90;0.90;;;14.90;99.90;;;;;;4988178;28;20514;-91
2023/09/19 04:07:22;;;;;;;0.88;0.88;;;15.10;99.90;;;;;;4973739;28;20050;-85
2023/09/19 04:09:48;;;;;;;0.88;0.88;;;14.90;99.90;;;;;;4988946;28;20049;-85
2023/09/19 04:12:16;;;;;;;0.95;0.95;;;15.00;99.90;;;;;;4988878;28;20451;-86
2023/09/19 04:14:42;;;;;;;0.98;0.98;;;14.90;99.90;;;;;;4989616;28;20081;-85
2023/09/19 04:17:11;;;;;;;0.88;0.88;;;15.00;99.90;;;;;;4972964;28;20077;-91
2023/09/19 04:19:41;;;;;;;1.00;1.00;;;15.00;99.90;;;;;;4988707;28;20133;-91
2023/09/19 04:22:07;;;;;;;1.05;1.05;;;15.00;99.90;;;;;;4982752;28;20046;-86
2023/09/19 04:24:33;;;;;;;1.20;1.20;;;14.90;99.90;;;;;;4986617;28;20046;-89
2023/09/19 04:26:59;;;;;;;1.10;1.10;;;15.10;99.90;;;;;;4965126;28;20042;-84
2023/09/19 04:29:29;;;;;;;1.10;1.10;;;15.00;99.90;;;;;;4971562;28;20080;-87
2023/09/19 04:31:54;;;;;;;1.10;1.10;;;15.00;99.90;;;;;;4986007;28;20393;-87
2023/09/19 04:34:20;;;;;;;1.10;1.10;;;14.80;99.90;;;;;;4989505;28;20049;-89
2023/09/19 04:36:46;;;;;;;0.90;0.90;;;14.90;99.90;;;;;;4973675;28;20448;-91
2023/09/19 04:39:13;;;;;;;1.00;1.00;;;14.90;99.90;;;;;;4974209;28;20045;-86
2023/09/19 04:41:41;;;;;;;1.00;1.00;;;14.80;99.90;;;;;;4989894;28;20496;-87
2023/09/19 04:44:09;;;;;;;0.90;0.90;;;14.70;99.90;;;;;;4968657;28;20054;-91
2023/09/19 04:46:37;;;;;;;1.02;1.02;;;14.60;99.90;;;;;;4965122;28;20042;-88
2023/09/19 04:49:03;;;;;;;1.00;1.00;;;14.60;99.90;;;;;;4964986;28;20045;-91
2023/09/19 04:51:34;;;;;;;0.90;0.90;;;14.40;99.90;;;;;;4986095;28;20054;-87
2023/09/19 04:54:00;;;;;;;0.82;0.82;;;14.40;99.90;;;;;;4966418;28;20072;-90
2023/09/19 04:56:28;;;;;;;0.80;0.80;;;14.50;99.90;;;;;;4966288;28;20047;-87
2023/09/19 04:58:54;;;;;;;0.80;0.80;;;14.40;99.90;;;;;;4968768;28;20053;-87
2023/09/19 05:01:29;;;;;;;0.85;0.85;;;14.40;99.90;;;;;;4968744;28;20046;-88
2023/09/19 05:03:55;;;;;;;0.80;0.80;;;14.40;99.90;;;;;;4969534;28;20103;-88
2023/09/19 05:06:25;;;;;;;0.77;0.77;;;14.40;99.90;;;;;;4972288;28;20042;-86
2023/09/19 05:08:52;;;;;;;0.70;0.70;;;14.40;99.90;;;;;;4970090;28;20108;-86
2023/09/19 05:11:22;;;;;;;0.70;0.70;;;14.40;99.90;;;;;;4972207;28;20042;-92
2023/09/19 05:13:52;;;;;;;0.70;0.70;;;14.30;99.90;;;;;;4986987;28;20499;-91
2023/09/19 05:16:24;;;;;;;0.70;0.70;;;14.30;99.90;;;;;;4988883;28;20117;-91
2023/09/19 05:18:49;;;;;;;0.70;0.70;;;14.30;99.90;;;;;;4989192;28;20132;-87
2023/09/19 05:21:15;;;;;;;0.70;0.70;;;14.20;99.90;;;;;;4974762;28;20132;-88
2023/09/19 05:23:42;;;;;;;0.70;0.70;;;14.20;99.90;;;;;;4973012;28;20085;-87
2023/09/19 05:26:07;;;;;;;0.60;0.60;;;14.20;99.90;;;;;;4987657;28;20141;-86
2023/09/19 05:28:34;;;;;;;0.63;0.63;;;14.20;99.90;;;;;;4987915;28;20558;-88
2023/09/19 05:31:02;;;;;;;0.70;0.70;;;14.20;99.90;;;;;;4972117;28;20041;-84
2023/09/19 05:33:28;;;;;;;0.60;0.60;;;14.20;99.90;;;;;;4987255;28;20104;-85
2023/09/19 05:35:53;;;;;;;0.63;0.63;;;14.20;99.90;;;;;;4971516;28;20550;-86
2023/09/19 05:38:20;;;;;;;0.60;0.60;;;14.20;99.90;;;;;;4987158;28;20049;-88
2023/09/19 05:40:46;;;;;;;0.70;0.70;;;14.20;99.90;;;;;;4970346;28;20507;-82
2023/09/19 05:43:12;;;;;;;0.63;0.63;;;14.10;99.90;;;;;;4986122;28;20050;-85
2023/09/19 05:45:38;;;;;;;0.70;0.70;;;14.10;99.90;;;;;;4988135;28;20050;-85
2023/09/19 05:48:13;;;;;;;0.65;0.65;;;14.10;99.90;;;;;;4988572;28;20073;-83
2023/09/19 05:50:39;;;;;;;0.70;0.70;;;14.10;99.90;;;;;;4988856;28;20042;-87
2023/09/19 05:53:12;;;;;;;0.60;0.60;;;14.10;99.90;;;;;;4986549;28;20049;-88
2023/09/19 05:55:43;;;;;;;0.60;0.60;;;14.10;99.90;;;;;;4970995;28;20124;-88
2023/09/19 05:58:10;;;;;;;0.70;0.70;;;14.10;99.90;;;;;;4987259;28;20038;-85
2023/09/19 06:00:36;;;;;;;0.60;0.60;;;14.20;99.90;;;;;;4988280;28;20527;-85
2023/09/19 06:03:04;;;;;;;0.65;0.65;;;14.20;99.90;;;;;;4985465;28;20061;-87
2023/09/19 06:05:33;;;;;;;0.65;0.65;;;14.30;99.90;;;;;;4987958;28;20045;-89
2023/09/19 06:08:07;;;;;;;0.63;0.63;;;14.30;99.90;;;;;;4988136;28;20053;-91
2023/09/19 06:10:52;;;;;;;0.70;0.70;;;14.50;99.90;;;;;;4971513;28;20069;-86
2023/09/19 06:13:19;;;;;;;0.70;0.70;;;14.60;99.90;;;;;;4988231;28;20104;-88
2023/09/19 06:15:46;;;;;;;0.70;0.70;;;14.80;99.90;;;;;;4987862;28;20073;-91
2023/09/19 06:18:19;;;;;;;0.70;0.70;;;14.90;99.90;;;;;;4988297;28;20046;-86
2023/09/19 06:20:50;;;;;;;0.73;0.73;;;15.10;99.90;;;;;;4993307;28;20611;-87
2023/09/19 06:23:17;;;;;;;0.70;0.70;;;15.30;99.90;;;;;;4976749;28;20072;-85
2023/09/19 06:25:43;;;;;;;0.80;0.80;;;15.50;99.90;;;;;;4976219;28;20458;-86
2023/09/19 06:28:13;;;;;;;0.80;0.80;;;15.40;99.90;;;;;;4990558;28;20168;-86
2023/09/19 06:30:44;;;;;;;0.70;0.70;;;15.20;99.90;;;;;;4990829;28;20050;-85
2023/09/19 06:33:11;;;;;;;0.70;0.70;;;15.00;99.90;;;;;;4984885;28;20723;-85
2023/09/19 06:35:37;;;;;;;0.70;0.70;;;15.00;99.90;;;;;;4989296;28;20057;-84
2023/09/19 06:38:03;;;;;;;0.80;0.80;;;14.90;99.90;;;;;;4989054;28;20046;-84
2023/09/19 06:40:30;;;;;;;0.70;0.70;;;14.90;99.90;;;;;;4989665;28;20101;-86
2023/09/19 06:42:56;;;;;;;0.70;0.70;;;14.90;99.90;;;;;;4973820;28;20038;-89
2023/09/19 06:45:22;;;;;;;0.70;0.70;;;14.90;99.90;;;;;;4987770;28;20046;-87
2023/09/19 06:47:51;;;;;;;0.70;0.70;;;14.80;99.90;;;;;;4988539;28;20045;-88
2023/09/19 06:50:24;;;;;;;0.70;0.70;;;14.80;99.90;;;;;;4990625;28;20530;-90
2023/09/19 06:52:53;;;;;;;0.70;0.70;;;14.90;99.90;;;;;;4990610;28;20046;-90
2023/09/19 06:55:20;;;;;;;0.65;0.65;;;14.90;99.90;;;;;;4972992;28;20435;-86
2023/09/19 06:57:49;;;;;;;0.70;0.70;;;14.90;99.90;;;;;;4974839;28;20604;-84
2023/09/19 07:00:18;;;;;;;0.70;0.70;;;14.90;99.90;;;;;;4992214;28;20391;-87
2023/09/19 07:03:08;;;;;;;0.63;0.63;;;15.00;99.90;;;;;;5010569;28;20125;-88
2023/09/19 07:05:38;;;;;;;0.70;0.70;;;15.00;99.90;;;;;;4970819;28;20042;-87
2023/09/19 07:08:08;;;;;;;0.70;0.70;;;15.20;99.90;;;;;;4990566;28;20384;-88
2023/09/19 07:10:33;;;;;;;0.73;0.73;;;15.20;99.90;;;;;;4989949;28;20038;-86
2023/09/19 07:13:01;;;;;;;0.70;0.70;;;15.20;99.90;;;;;;4988656;28;20045;-85
2023/09/19 07:15:28;;;;;;;0.70;0.70;;;15.40;99.90;;;;;;4989176;28;20041;-87
2023/09/19 07:17:55;;;;;;;0.70;0.70;;;15.60;99.90;;;;;;4989217;28;20704;-85
2023/09/19 07:20:25;;;;;;;0.70;0.70;;;15.80;99.90;;;;;;4973036;28;20049;-85
2023/09/19 07:22:51;;;;;;;0.70;0.70;;;15.90;99.90;;;;;;4989450;28;20053;-85
2023/09/19 07:25:16;;;;;;;0.70;0.70;;;16.10;99.90;;;;;;4989677;28;20384;-86
2023/09/19 07:27:43;;;;;;;0.70;0.70;;;16.10;99.90;;;;;;4989654;28;20052;-86
2023/09/19 07:30:09;;;;;;;0.70;0.70;;;16.30;99.90;;;;;;4988975;28;20071;-88
2023/09/19 07:32:38;;;;;;;0.70;0.70;;;16.30;99.90;;;;;;4988519;28;20562;-84
2023/09/19 07:35:05;;;;;;;0.68;0.68;;;16.60;99.90;;;;;;4988569;28;20065;-83
2023/09/19 07:37:33;;;;;;;0.70;0.70;;;16.70;99.90;;;;;;4988428;28;20132;-86
2023/09/19 07:40:12;;;;;;;0.80;0.80;;;16.80;99.90;;;;;;4990438;28;20233;-85
2023/09/19 07:42:40;;;;;;;0.80;0.80;;;16.70;99.90;;;;;;4990013;28;20499;-85
2023/09/19 07:45:09;;;;;;;0.90;0.90;;;16.70;99.90;;;;;;4971882;28;20054;-84
2023/09/19 07:47:36;;;;;;;0.95;0.95;;;16.90;99.90;;;;;;4982810;28;20050;-84
2023/09/19 07:50:08;;;;;;;1.10;1.10;;;17.00;99.90;;;;;;4973505;28;20505;-90
2023/09/19 07:52:33;;;;;;;1.20;1.20;;;17.00;99.90;;;;;;4970779;28;20112;-85
2023/09/19 07:55:09;;;;;;;1.10;1.10;;;17.00;99.90;;;;;;4975129;28;20049;-92
2023/09/19 07:57:37;;;;;;;1.17;1.17;;;17.30;99.90;;;;;;4976925;28;20092;-91
2023/09/19 08:00:07;;;;;;;1.20;1.20;;;17.10;99.90;;;;;;4982083;28;20046;-92
2023/09/19 08:02:42;;;;;;;1.58;1.48;;;17.20;99.90;;;;;;4974285;28;20049;-89
2023/09/19 08:05:27;;;;;;;1.63;1.52;;;17.20;99.90;;;;;;4990528;28;20108;-89
2023/09/19 08:07:53;;;;;;;1.55;1.45;;;17.10;99.90;;;;;;4968747;28;20041;-81
2023/09/19 08:10:20;;;;;;;1.58;1.48;;;17.00;99.90;;;;;;4984814;28;20053;-84
2023/09/19 08:12:56;;;;;;;1.55;1.45;;;17.20;99.90;;;;;;4974581;28;20056;-87
2023/09/19 08:15:21;;;;;;;1.33;1.33;;;17.20;99.90;;;;;;4990109;28;20054;-84
2023/09/19 08:17:48;;;;;;;1.65;1.55;;;17.20;99.90;;;;;;4971222;28;20073;-86
2023/09/19 08:20:18;;;;;;;1.38;1.35;;;17.20;99.90;;;;;;4982416;28;20046;-83
2023/09/19 08:22:49;;;;;;;1.60;1.50;;;17.20;99.90;;;;;;4972914;28;20148;-88
2023/09/19 08:25:18;;;;;;;1.27;1.27;;;17.20;99.90;;;;;;4989384;28;20045;-86
2023/09/19 08:27:49;;;;;;;1.13;1.13;;;17.30;99.90;;;;;;5005473;28;20073;-83
2023/09/19 08:30:18;;;;;;;1.15;1.15;;;17.30;99.90;;;;;;4972369;28;20062;-93
2023/09/19 08:32:44;;;;;;;1.08;1.08;;;17.20;99.90;;;;;;4989827;28;20034;-81
2023/09/19 08:35:16;;;;;;;1.05;1.05;;;17.20;99.90;;;;;;4989938;28;20042;-89
2023/09/19 08:37:45;;;;;;;1.20;1.20;;;17.40;99.90;;;;;;4973093;28;20124;-86
2023/09/19 08:40:14;;;;;;;1.15;1.15;;;17.50;99.90;;;;;;4982869;28;20050;-83
2023/09/19 08:42:50;;;;;;;1.17;1.17;;;17.60;99.90;;;;;;4988577;28;20073;-93
2023/09/19 08:45:15;;;;;;;1.15;1.15;;;17.50;99.90;;;;;;4973469;28;20152;-83
2023/09/19 08:47:51;;;;;;;1.00;1.00;;;17.60;99.90;;;;;;4989393;28;20109;-85
2023/09/19 08:50:25;;;;;;;1.00;1.00;;;17.50;99.90;;;;;;4966293;28;20042;-89
2023/09/19 08:52:54;;;;;;;;;;;17.60;99.90;;;;;;4990049;28;20107;-83
2023/09/19 08:55:26;;;;;;;1.00;1.00;;;17.60;99.90;;;;;;4988571;28;20012;-85
2023/09/19 08:57:59;;;;;;;0.90;0.90;;;17.70;99.90;;;;;;4988069;28;20056;-88
2023/09/19 09:00:27;;;;;;;0.95;0.95;;;17.70;99.90;;;;;;4986299;28;20054;-92
2023/09/19 09:02:55;;;;;;;0.93;0.93;;;17.80;99.90;;;;;;5005532;28;20038;-87
2023/09/19 09:05:23;;;;;;;0.90;0.90;;;17.80;99.90;;;;;;4972892;28;20837;-82
2023/09/19 09:07:56;;;;;;;0.82;0.82;;;17.70;99.90;;;;;;4972489;28;20053;-85
2023/09/19 09:10:22;;;;;;;0.90;0.90;;;17.80;99.90;;;;;;4987754;28;20054;-81
2023/09/19 09:12:54;;;;;;;0.80;0.80;;;18.10;99.90;;;;;;4989207;28;20499;-88
2023/09/19 09:15:23;;;;;;;0.90;0.90;;;18.20;99.90;;;;;;4989644;28;20131;-89
2023/09/19 09:17:55;;;;;;;0.90;0.90;;;18.30;99.90;;;;;;4989570;28;20041;-89
2023/09/19 09:20:21;;;;;;;0.80;0.80;;;18.40;99.90;;;;;;4974002;28;20115;-82
2023/09/19 09:22:54;;;;;;;0.90;0.90;;;18.60;99.90;;;;;;4988703;28;20056;-86
2023/09/19 09:25:23;;;;;;;0.80;0.80;;;18.60;99.90;;;;;;4990854;28;20038;-85
2023/09/19 09:28:04;;;;;;;1.00;1.00;;;18.70;99.90;;;;;;4989967;28;20105;-94
2023/09/19 09:30:43;;;;;;;0.90;0.90;;;18.80;99.90;;;;;;4988461;28;20046;-83
2023/09/19 09:33:14;;;;;;;0.90;0.90;;;18.80;99.90;;;;;;4986481;28;20053;-82
2023/09/19 09:35:52;;;;;;;0.93;0.93;;;19.00;99.90;;;;;;4972521;28;20491;-85
2023/09/19 09:38:27;;;;;;;0.98;0.98;;;19.10;99.90;;;;;;4986588;28;20052;-81
2023/09/19 09:41:06;;;;;;;1.00;1.00;;;19.10;99.90;;;;;;4986487;28;20084;-80
2023/09/19 09:43:40;;;;;;;1.10;1.10;;;19.00;99.90;;;;;;5003811;28;20136;-84
2023/09/19 09:49:18;;;;;;;0.90;0.90;;;19.00;99.90;;;;;;4985828;28;20073;-87
2023/09/19 09:51:48;;;;;;;1.00;1.00;;;19.10;99.90;;;;;;4987423;28;20104;-84
2023/09/19 09:54:17;;;;;;;0.85;0.85;;;19.20;99.90;;;;;;4991270;28;20054;-83
2023/09/19 09:56:59;;;;;;;0.90;0.90;;;19.20;99.90;;;;;;4976167;28;20111;-80
2023/09/19 09:59:46;;;;;;;0.90;0.90;;;19.30;99.90;;;;;;4990139;28;20104;-86
2023/09/19 10:02:24;;;;;;;0.80;0.80;;;19.10;99.90;;;;;;4987299;28;20091;-81
2023/09/19 10:07:40;;;;;;;0.80;0.80;;;19.10;99.90;;;;;;4988811;28;20617;-85
2023/09/19 10:10:21;;;;;;;;;;;19.30;99.90;;;;;;4973269;28;20056;-83
2023/09/19 10:12:48;;;;;;;0.88;0.88;;;18.90;99.90;;;;;;4990139;28;19929;-86
2023/09/19 10:15:17;;;;;;;0.90;0.90;;;18.70;99.90;;;;;;4989777;28;20476;-86
2023/09/19 10:17:44;;;;;;;0.85;0.85;;;18.90;99.90;;;;;;4989127;28;20042;-82
2023/09/19 10:20:24;;;;;;;0.80;0.80;;;18.70;99.90;;;;;;4988495;28;20116;-93
2023/09/19 10:22:57;;;;;;;0.77;0.77;;;18.70;99.90;;;;;;4988996;28;20077;-86
2023/09/19 10:25:30;;;;;;;0.60;0.60;;;18.90;99.90;;;;;;4989421;28;20046;-83
2023/09/19 10:28:02;;;;;;;0.80;0.80;;;19.00;99.90;;;;;;4989326;28;20049;-85
2023/09/19 10:30:30;;;;;;;0.70;0.70;;;19.10;99.90;;;;;;4987943;28;20291;-80
2023/09/19 10:33:05;;;;;;;0.80;0.80;;;19.40;99.90;;;;;;4988325;28;20120;-82
2023/09/19 10:35:32;;;;;;;0.70;0.70;;;19.40;99.90;;;;;;4987021;28;20049;-86
2023/09/19 10:38:03;;;;;;;0.70;0.70;;;19.40;99.90;;;;;;4989319;28;20046;-86
2023/09/19 10:40:32;;;;;;;0.70;0.70;;;19.50;99.90;;;;;;4973640;28;20119;-85
2023/09/19 10:43:15;;;;;;;0.60;0.60;;;19.50;99.90;;;;;;4991831;28;20188;-89
2023/09/19 10:45:52;;;;;;;0.60;0.60;;;19.60;99.90;;;;;;4972482;28;20057;-86
2023/09/19 10:48:25;;;;;;;0.70;0.70;;;19.30;99.90;;;;;;4987576;28;20125;-86
2023/09/19 10:51:13;;;;;;;0.75;0.75;;;19.00;99.90;;;;;;5002843;28;20061;-84
2023/09/19 10:54:10;;;;;;;;;;;;;;;;;;;;;
2023/09/19 10:56:38;;;;;;;0.70;0.70;;;19.20;99.90;;;;;;4989876;28;20334;-81
2023/09/19 10:59:13;;;;;;;0.70;0.70;;;19.40;99.90;;;;;;5006486;28;20056;-84
2023/09/19 11:02:02;;;;;;;0.60;0.60;;;19.50;99.90;;;;;;5006702;28;20060;-83
2023/09/19 11:04:38;;;;;;;0.60;0.60;;;19.60;99.90;;;;;;4989927;28;20151;-84
2023/09/19 11:07:12;;;;;;;0.60;0.60;;;19.90;99.90;;;;;;4974104;28;20057;-92
2023/09/19 11:09:53;;;;;;;0.70;0.70;;;19.80;99.90;;;;;;4990710;28;20053;-84
2023/09/19 11:12:40;;;;;;;0.70;0.70;;;19.60;99.90;;;;;;4990215;28;20050;-84
2023/09/19 11:15:08;;;;;;;0.70;0.70;;;19.70;99.90;;;;;;4990078;28;20049;-83
2023/09/19 11:17:40;;;;;;;0.70;0.70;;;19.40;99.90;;;;;;4989447;28;20084;-86
2023/09/19 11:22:58;;;;;;;0.70;0.70;;;19.20;99.90;;;;;;4986945;28;20049;-84
2023/09/19 11:25:30;;;;;;;0.70;0.70;;;19.10;99.90;;;;;;4989418;28;20046;-87
2023/09/19 11:28:05;;;;;;;0.80;0.80;;;19.10;99.90;;;;;;4973048;28;20618;-82
2023/09/19 11:30:36;;;;;;;0.70;0.70;;;19.10;99.90;;;;;;4989962;28;20046;-86
2023/09/19 11:33:33;;;;;;;0.70;0.70;;;19.20;99.90;;;;;;5005521;28;20685;-91
2023/09/19 11:36:14;;;;;;;0.80;0.80;;;19.20;99.90;;;;;;4989439;28;20054;-90
2023/09/19 11:39:08;;;;;;;0.70;0.70;;;19.30;99.90;;;;;;4989190;28;20133;-86
2023/09/19 11:41:41;;;;;;;0.70;0.70;;;19.40;99.90;;;;;;4980891;28;20085;-86
2023/09/19 11:44:10;;;;;;;0.65;0.65;;;19.30;99.90;;;;;;4990066;28;20107;-86
2023/09/19 11:46:51;;;;;;;0.63;0.63;;;19.70;99.90;;;;;;4989682;28;20052;-84
2023/09/19 11:49:38;;;;;;;0.63;0.63;;;19.80;99.90;;;;;;4989227;28;20096;-83
2023/09/19 11:52:05;;;;;;;0.60;0.60;;;19.60;99.90;;;;;;4972034;28;20117;-85
2023/09/19 11:54:32;;;;;;;0.70;0.70;;;19.80;99.90;;;;;;5007116;28;20443;-88
2023/09/19 11:56:59;;;;;;;0.70;0.70;;;19.80;99.90;;;;;;4972747;28;20165;-82
2023/09/19 11:59:29;;;;;;;0.70;0.70;;;19.70;99.90;;;;;;4988182;28;20065;-87
2023/09/19 12:02:00;;;;;;;0.70;0.70;;;19.70;99.90;;;;;;4986076;28;20050;-84
2023/09/19 12:04:49;;;;;;;0.70;0.70;;;19.80;99.90;;;;;;4985211;28;20042;-82
2023/09/19 12:07:16;;;;;;;0.70;0.70;;;19.80;99.90;;;;;;4983390;28;20053;-85
2023/09/19 12:09:47;;;;;;;0.60;0.60;;;19.70;99.90;;;;;;4986150;28;20049;-86
2023/09/19 12:12:26;;;;;;;0.70;0.70;;;19.80;99.90;;;;;;4979495;28;20041;-85
2023/09/19 12:14:54;;;;;;;0.70;0.70;;;19.80;99.90;;;;;;4987561;28;20566;-79
2023/09/19 12:17:24;;;;;;;0.70;0.70;;;19.60;99.90;;;;;;4988096;28;20049;-83
2023/09/19 12:19:53;;;;;;;0.70;0.70;;;19.50;99.90;;;;;;4989213;28;21594;-85
2023/09/19 12:22:20;;;;;;;0.70;0.70;;;19.70;99.90;;;;;;4984932;28;20057;-85
2023/09/19 12:24:54;;;;;;;0.80;0.80;;;19.50;99.90;;;;;;4986855;28;20058;-85
2023/09/19 12:27:20;;;;;;;;;;;19.50;99.90;;;;;;4988845;28;20339;-85
2023/09/19 12:29:53;;;;;;;0.80;0.80;;;19.80;99.90;;;;;;4989028;28;19932;-86
2023/09/19 12:32:40;;;;;;;0.70;0.70;;;20.40;99.90;;;;;;4989409;28;20065;-82
2023/09/19 12:35:10;;;;;;;0.70;0.70;;;20.60;99.90;;;;;;4986651;28;20137;-84
2023/09/19 12:37:42;;;;;;;0.60;0.60;;;21.10;99.90;;;;;;5004633;28;20068;-80
2023/09/19 12:40:22;;;;;;;0.60;0.60;;;21.20;99.90;;;;;;4989056;28;20042;-83
2023/09/19 12:42:48;;;;;;;0.50;0.50;;;21.20;99.90;;;;;;4988469;28;20046;-80
2023/09/19 12:45:17;;;;;;;0.60;0.60;;;20.80;99.90;;;;;;4988302;28;20378;-84
2023/09/19 12:48:34;;;;;;;0.60;0.60;;;20.30;99.90;;;;;;4995287;28;20100;-88
2023/09/19 12:51:07;;;;;;;0.60;0.60;;;19.90;99.90;;;;;;4985563;28;20056;-81
2023/09/19 12:53:37;;;;;;;0.70;0.70;;;19.50;99.90;;;;;;4987048;28;20049;-81
2023/09/19 12:56:08;;;;;;;0.70;0.70;;;19.30;99.90;;;;;;4987797;28;20537;-82
2023/09/19 12:58:34;;;;;;;0.70;0.70;;;19.20;99.90;;;;;;5004730;28;20407;-81
2023/09/19 13:01:02;;;;;;;0.80;0.80;;;19.40;99.90;;;;;;4988486;28;20053;-79
2023/09/19 13:03:35;;;;;;;0.80;0.80;;;19.50;99.90;;;;;;5006311;28;20080;-90
2023/09/19 13:06:04;;;;;;;0.82;0.82;;;19.70;99.90;;;;;;4970748;28;20140;-85
2023/09/19 13:08:32;;;;;;;0.82;0.82;;;19.90;99.90;;;;;;4948272;28;20054;-81
2023/09/19 13:11:14;;;;;;;0.85;0.85;;;20.00;99.90;;;;;;4986038;28;20049;-83
2023/09/19 13:13:44;;;;;;;0.80;0.80;;;19.90;99.90;;;;;;4966231;28;20042;-79